WetterOnline ( https://www.wetteronline.de )

Wetter aktuell Annaberg-Buchholz

Aktuelles Wetter: Marienberg (640m)

6-stündlich | Neueste Meldungen
Ortszeit Temperatur Wetter
Mi, 25.05. 20:00 15.5° C wolkig
Mi, 25.05. 14:00 16.2° C wolkig
Mi, 25.05. 8:00 11.0° C bedeckt
Mi, 25.05. 2:00 8.2° C wolkig
Di, 24.05. 20:00 16.1° C leicht bewölkt
Di, 24.05. 14:00 17.1° C wolkig
Di, 24.05. 8:00 16.1° C wolkig
Di, 24.05. 2:00 16.5° C bedeckt
Ortszeit Temperatur Wetter
Do, 26.05. 0:30 7.9° C wolkig
Do, 26.05. 0:20 7.9° C wolkig
Do, 26.05. 0:10 8.0° C bewölkt
Do, 26.05. 0:00 9.0° C leicht bewölkt
Mi, 25.05. 23:50 9.0° C leicht bewölkt
Mi, 25.05. 23:40 8.9° C wolkig
Mi, 25.05. 23:30 9.2° C leicht bewölkt
Mi, 25.05. 23:00 10.7° C fast wolkenlos
Mi, 25.05. 22:30 12.1° C wolkenlos
Mi, 25.05. 22:00 12.6° C wolkenlos
Mi, 25.05. 21:30 13.0° C wolkenlos
Ortszeit Relative Feuchte Sichtweite
Mi, 25.05. 20:00 49% >70 km
Mi, 25.05. 14:00 56% >70 km
Mi, 25.05. 8:00 83% 60 km
Mi, 25.05. 2:00 93% 55 km
Di, 24.05. 20:00 64% >70 km
Di, 24.05. 14:00 58% >70 km
Di, 24.05. 8:00 72% 60 km
Di, 24.05. 2:00 68% 60 km
Ortszeit Relative Feuchte Sichtweite
Do, 26.05. 0:30 79% >70 km
Do, 26.05. 0:20 79% -
Do, 26.05. 0:10 79% -
Do, 26.05. 0:00 74% 50 km
Mi, 25.05. 23:50 74% -
Mi, 25.05. 23:40 75% -
Mi, 25.05. 23:30 72% 65 km
Mi, 25.05. 23:00 66% 60 km
Mi, 25.05. 22:30 58% >70 km
Mi, 25.05. 22:00 56% >70 km
Mi, 25.05. 21:30 56% >70 km
Ortszeit Niederschlagsmenge Niederschlagsart
Mi, 25.05. 20:00 0.5 l/m2 in 12 Std. -
Mi, 25.05. 14:00 0.5 l/m2 in 6 Std. Regen
Mi, 25.05. 8:00 0.1 l/m2 in 12 Std. Sprühregen
Mi, 25.05. 2:00 0.0 l/m2 in 6 Std. -
Di, 24.05. 20:00 0.1 l/m2 in 12 Std. Regen
Di, 24.05. 14:00 0.1 l/m2 in 6 Std. Sprühregen
Di, 24.05. 8:00 0.1 l/m2 in 12 Std. Regen
Di, 24.05. 2:00 0.0 l/m2 in 6 Std. -
Ortszeit Niederschlagsmenge Niederschlagsart
Do, 26.05. 0:30 0.0 l/m2 in 1 Std. -
Do, 26.05. 0:20 keine Meldung -
Do, 26.05. 0:10 keine Meldung -
Do, 26.05. 0:00 0.0 l/m2 in 1 Std. -
Mi, 25.05. 23:50 keine Meldung -
Mi, 25.05. 23:40 keine Meldung -
Mi, 25.05. 23:30 0.0 l/m2 in 1 Std. -
Mi, 25.05. 23:00 0.0 l/m2 in 1 Std. -
Mi, 25.05. 22:30 0.0 l/m2 in 1 Std. -
Mi, 25.05. 22:00 0.0 l/m2 in 1 Std. -
Mi, 25.05. 21:30 0.0 l/m2 in 1 Std. -
Ortszeit Stärke Spitze Richtung
km/h Bft. km/h Grad Sektor
Mi, 25.05. 20:00 9 2 30 290° W
Mi, 25.05. 14:00 13 3 24 300° NW
Mi, 25.05. 8:00 4 1 7 240° SW
Mi, 25.05. 2:00 2 1 11 220° SW
Di, 24.05. 20:00 7 2 30 350° N
Di, 24.05. 14:00 13 3 31 250° W
Di, 24.05. 8:00 13 3 44 260° W
Di, 24.05. 2:00 18 3 50 240° SW
Ortszeit Stärke Spitze Richtung
km/h Bft. km/h Grad Sektor
Do, 26.05. 0:30 2 1 4 250° W
Do, 26.05. 0:20 2 1 - 250° W
Do, 26.05. 0:10 0 0 - 150° SO
Do, 26.05. 0:00 4 1 7 190° S
Mi, 25.05. 23:50 4 1 - 190° S
Mi, 25.05. 23:40 4 1 - 230° SW
Mi, 25.05. 23:30 6 1 7 250° W
Mi, 25.05. 23:00 6 1 13 280° W
Mi, 25.05. 22:30 7 2 14 250° W
Mi, 25.05. 22:00 7 2 14 260° W
Mi, 25.05. 21:30 7 2 14 260° W
Ortszeit Untergrenze Bedeckung Gattung
total tief tief mittel hoch
Mi, 25.05. 20:00 1500 m 7/8 1/8 - - -
Mi, 25.05. 14:00 930 m 6/8 6/8 - - -
Mi, 25.05. 8:00 2100 m 8/8 8/8 - - -
Mi, 25.05. 2:00 3000 m 8/8 2/8 - - -
Di, 24.05. 20:00 1500 m 4/8 1/8 - - -
Di, 24.05. 14:00 2100 m 8/8 3/8 - - -
Di, 24.05. 8:00 6300 m 6/8 6/8 - - -
Di, 24.05. 2:00 2700 m 8/8 8/8 - - -
Ortszeit Bedeckungsgrad in Achtel und Wolkenuntergrenze
Do, 26.05. 0:30 4(8100m) 7(9000m) 7(9000m)
Do, 26.05. 0:20 4(8100m) 7(9000m) 7(9000m)
Do, 26.05. 0:10 7
Do, 26.05. 0:00 4(1800m)
Mi, 25.05. 23:50 4(1800m)
Mi, 25.05. 23:40 5
Mi, 25.05. 23:30 2(1800m)
Mi, 25.05. 23:00 1(2100m)
Mi, 25.05. 22:30 keine Wolken
Mi, 25.05. 22:00 keine Wolken
Mi, 25.05. 21:30 keine Wolken
Ortszeit Luftdruck NN (hPa) Tendenz (hPa in 3 Std.)
Mi, 25.05. 20:00 1016 + 0,7
Mi, 25.05. 14:00 1015 - 0,1
Mi, 25.05. 8:00 1015 + 1,4
Mi, 25.05. 2:00 1014 + 0,3
Di, 24.05. 20:00 1009 + 1,3
Di, 24.05. 14:00 1006 + 1,0
Di, 24.05. 8:00 1004 + 0,8
Di, 24.05. 2:00 1002 - 0,4
Ortszeit Luftdruck NN (hPa) Tendenz (hPa in 3 Std.)
Do, 26.05. 0:30 1020 + 1,1
Do, 26.05. 0:20 1020 keine Meldung
Do, 26.05. 0:10 1019 keine Meldung
Do, 26.05. 0:00 1019 + 1,2
Mi, 25.05. 23:50 1019 keine Meldung
Mi, 25.05. 23:40 1019 keine Meldung
Mi, 25.05. 23:30 1019 + 1,3
Mi, 25.05. 23:00 1018 + 1,5
Mi, 25.05. 22:30 1018 + 1,7
Mi, 25.05. 22:00 1018 + 1,6
Mi, 25.05. 21:30 1017 + 1,2
Ortszeit Schneehöhe (cm)
Mi, 25.05. 20:00 0
Mi, 25.05. 14:00 0
Mi, 25.05. 8:00 0
Mi, 25.05. 2:00 0
Di, 24.05. 20:00 0
Di, 24.05. 14:00 0
Di, 24.05. 8:00 0
Di, 24.05. 2:00 0
Ortszeit Schneehöhe (cm)
Do, 26.05. 0:30 0
Do, 26.05. 0:20 0
Do, 26.05. 0:10 0
Do, 26.05. 0:00 0
Mi, 25.05. 23:50 0
Mi, 25.05. 23:40 0
Mi, 25.05. 23:30 0
Mi, 25.05. 23:00 0
Mi, 25.05. 22:30 0
Mi, 25.05. 22:00 0
Mi, 25.05. 21:30 0
Link zu dieser Seite / Seite empfehlen

Das Wetter in ...